Abrams, Wisconsin
Current Conditions -  °F | °C
As of 11:15 AM on Friday 31 Oct 2014 (Local Time) from KOCQ Reporting Station
Overcast Overcast  
Wind Chill: 27°   Ceiling: 3900
Heat Index: 38°   Visibility: 10mi
Dew Point: 22°   Wind: 23mph
Humidity: 52%   Direction: 20°NNE
Pressure: 30.31"   Gusts: 33mph
Location:  44.78°N, 88.06°W
Report Text: KOCQ 311615Z AUTO 02020G29KT 10SM OVC039 03/M06 A3031 RMK AO1 T00321058
Loading
Personal Weather Stations






























Interactive Weather Map
Tropical Storm Tracking
New forecast layout! Learn more

10-Day Weather Forecast

Advertisements
Track Severe Weather on mobile